createdAt,value
2023-05-20T00:00:14.698Z,30.60
2023-05-20T00:02:46.855Z,30.60
2023-05-20T00:05:18.113Z,30.50
2023-05-20T00:07:49.086Z,30.50
2023-05-20T00:10:20.520Z,30.50
2023-05-20T00:12:51.644Z,30.50
2023-05-20T00:15:22.892Z,30.60
2023-05-20T00:17:53.967Z,30.60
2023-05-20T00:20:25.327Z,30.60
2023-05-20T00:22:56.553Z,30.70
2023-05-20T00:25:27.557Z,30.80
2023-05-20T00:27:58.664Z,30.80
2023-05-20T00:30:30.127Z,30.80
2023-05-20T00:33:03.123Z,30.90
2023-05-20T00:35:33.931Z,30.90
2023-05-20T00:38:06.184Z,30.90
2023-05-20T00:40:37.415Z,30.90
2023-05-20T00:43:08.455Z,30.90
2023-05-20T00:45:40.713Z,30.90
2023-05-20T00:48:12.273Z,30.90
2023-05-20T00:50:44.054Z,31.00
2023-05-20T00:53:15.523Z,31.10
2023-05-20T00:55:46.905Z,31.10
2023-05-20T00:58:18.081Z,31.20
2023-05-20T01:00:49.678Z,31.30
2023-05-20T01:03:21.703Z,31.30
2023-05-20T01:05:52.942Z,31.40
2023-05-20T01:08:27.972Z,31.50
2023-05-20T01:11:19.624Z,31.50
2023-05-20T01:13:55.760Z,31.60
2023-05-20T01:16:27.598Z,31.70
2023-05-20T01:19:00.452Z,31.80
2023-05-20T01:21:33.548Z,31.80
2023-05-20T01:24:05.972Z,31.90
2023-05-20T01:26:38.576Z,32.00
2023-05-20T01:29:10.063Z,32.10
2023-05-20T01:31:42.463Z,32.20
2023-05-20T01:34:15.147Z,32.30
2023-05-20T01:36:48.446Z,32.30
2023-05-20T01:39:21.016Z,32.30
2023-05-20T01:41:53.209Z,32.40
2023-05-20T01:44:24.731Z,32.40
2023-05-20T01:46:56.536Z,32.40
2023-05-20T01:49:27.726Z,32.50
2023-05-20T01:51:59.190Z,32.60
2023-05-20T01:54:30.154Z,32.70
2023-05-20T01:57:01.076Z,32.80
2023-05-20T01:59:34.032Z,32.90
2023-05-20T02:02:05.469Z,33.00
2023-05-20T02:04:36.452Z,33.10
2023-05-20T02:07:08.174Z,33.20
2023-05-20T02:09:40.332Z,33.30
2023-05-20T02:12:13.369Z,33.30
2023-05-20T02:20:34.113Z,33.60
2023-05-20T02:23:20.654Z,33.60
2023-05-20T02:25:52.253Z,33.60
2023-05-20T02:28:23.566Z,33.70
2023-05-20T02:30:54.738Z,33.90
2023-05-20T02:33:26.234Z,34.00
2023-05-20T02:36:06.166Z,34.00
2023-05-20T02:38:37.375Z,34.10
2023-05-20T02:41:08.637Z,34.30
2023-05-20T02:43:40.293Z,34.30
2023-05-20T02:46:11.801Z,34.40
2023-05-20T02:48:59.839Z,34.40
2023-05-20T02:51:32.534Z,34.40
2023-05-20T02:54:04.696Z,34.40
2023-05-20T02:56:36.346Z,34.40
2023-05-20T02:59:08.539Z,34.50
2023-05-20T03:04:30.236Z,34.60
2023-05-20T03:07:01.364Z,34.60
2023-05-20T03:09:32.475Z,34.70
2023-05-20T03:12:03.475Z,34.80
2023-05-20T03:14:34.725Z,34.80
2023-05-20T03:17:06.354Z,34.90
2023-05-20T03:19:37.519Z,35.00
2023-05-20T03:22:12.934Z,35.00
2023-05-20T03:24:45.560Z,35.20
2023-05-20T03:27:17.887Z,35.20
2023-05-20T03:29:50.399Z,35.30
2023-05-20T03:32:22.268Z,35.30
2023-05-20T03:34:56.463Z,35.20
2023-05-20T03:37:28.541Z,35.20
2023-05-20T03:39:59.781Z,35.30
2023-05-20T03:42:35.985Z,35.30
2023-05-20T03:45:06.515Z,35.40
2023-05-20T03:47:37.561Z,35.50
2023-05-20T03:50:17.719Z,35.60
2023-05-20T03:52:55.975Z,35.70
2023-05-20T03:58:16.810Z,35.80
2023-05-20T04:00:48.737Z,35.80
2023-05-20T04:03:20.076Z,36.00
2023-05-20T04:05:52.770Z,36.00
2023-05-20T04:08:25.403Z,36.10
2023-05-20T04:11:03.023Z,36.20
2023-05-20T04:13:34.649Z,36.10
2023-05-20T04:16:06.655Z,36.10
2023-05-20T04:18:39.753Z,36.20
2023-05-20T04:21:11.363Z,36.20
2023-05-20T04:23:42.809Z,36.00
2023-05-20T04:26:14.126Z,36.00
2023-05-20T04:28:45.707Z,36.10
2023-05-20T04:31:21.096Z,36.20
2023-05-20T04:33:53.966Z,36.40
2023-05-20T04:36:26.484Z,36.50
2023-05-20T04:39:08.680Z,36.40
2023-05-20T04:41:41.195Z,36.40
2023-05-20T04:44:12.481Z,36.40
2023-05-20T04:46:44.166Z,36.40
2023-05-20T04:49:16.471Z,36.40
2023-05-20T04:51:48.831Z,36.50
2023-05-20T04:54:21.741Z,36.60
2023-05-20T04:56:52.810Z,36.70
2023-05-20T04:59:34.607Z,36.70
2023-05-20T05:02:06.324Z,36.70
2023-05-20T05:10:17.400Z,36.80
2023-05-20T05:13:03.472Z,36.90
2023-05-20T05:15:35.640Z,36.90
2023-05-20T05:18:07.205Z,37.00
2023-05-20T05:20:39.129Z,37.00
2023-05-20T05:23:10.772Z,37.00
2023-05-20T05:25:41.787Z,37.00
2023-05-20T05:28:12.974Z,37.10
2023-05-20T05:30:44.524Z,37.10
2023-05-20T05:33:16.941Z,37.20
2023-05-20T05:35:48.222Z,37.30
2023-05-20T05:38:20.375Z,37.30
2023-05-20T05:40:51.992Z,37.30
2023-05-20T05:46:13.471Z,37.40
2023-05-20T05:48:47.715Z,37.40
2023-05-20T05:51:19.149Z,37.40
2023-05-20T05:53:50.074Z,37.50
2023-05-20T05:56:21.358Z,37.50
2023-05-20T05:58:53.047Z,37.50
2023-05-20T06:01:24.752Z,37.50
2023-05-20T06:03:57.012Z,37.50
2023-05-20T06:06:28.673Z,37.50
2023-05-20T06:08:59.688Z,37.50
2023-05-20T06:11:30.748Z,37.60
2023-05-20T06:14:02.047Z,37.70
2023-05-20T06:16:33.361Z,37.70
2023-05-20T06:19:27.119Z,37.70
2023-05-20T06:22:08.444Z,37.70
2023-05-20T06:24:38.389Z,37.60
2023-05-20T06:27:10.631Z,37.60
2023-05-20T06:29:43.651Z,37.60
2023-05-20T06:32:14.288Z,37.50
2023-05-20T06:34:45.576Z,37.50
2023-05-20T06:37:18.749Z,37.50
2023-05-20T06:39:54.412Z,37.60
2023-05-20T06:42:26.315Z,37.60
2023-05-20T06:44:57.862Z,37.70
2023-05-20T06:47:29.315Z,37.60
2023-05-20T06:50:00.538Z,37.70
2023-05-20T06:52:31.629Z,37.70
2023-05-20T06:55:03.849Z,37.70
2023-05-20T06:57:35.791Z,37.70
2023-05-20T07:00:08.303Z,37.70
2023-05-20T07:02:45.614Z,37.70
2023-05-20T07:05:17.936Z,37.70
2023-05-20T07:07:49.483Z,37.60
2023-05-20T07:13:11.130Z,37.60
2023-05-20T07:15:42.485Z,37.60
2023-05-20T07:18:14.547Z,37.70
2023-05-20T07:20:46.405Z,37.70
2023-05-20T07:23:17.409Z,37.70
2023-05-20T07:25:48.510Z,37.80
2023-05-20T07:28:20.318Z,37.80
2023-05-20T07:30:52.759Z,37.80
2023-05-20T07:33:24.432Z,37.80
2023-05-20T07:35:56.848Z,37.80
2023-05-20T07:39:02.471Z,37.70
2023-05-20T07:41:27.831Z,37.70
2023-05-20T07:43:59.516Z,37.60
2023-05-20T07:46:30.829Z,37.60
2023-05-20T07:49:04.146Z,37.60
2023-05-20T07:51:35.121Z,37.50
2023-05-20T07:54:09.302Z,37.40
2023-05-20T07:56:40.810Z,37.40
2023-05-20T07:59:11.923Z,37.40
2023-05-20T08:04:28.230Z,37.50
2023-05-20T08:06:59.245Z,37.50
2023-05-20T08:09:30.520Z,37.60
2023-05-20T08:12:01.646Z,37.60
2023-05-20T08:14:32.769Z,37.60
2023-05-20T08:17:04.176Z,37.60
2023-05-20T08:19:35.962Z,37.60
2023-05-20T08:22:07.556Z,37.70
2023-05-20T08:24:38.795Z,37.70
2023-05-20T08:27:09.997Z,37.80
2023-05-20T08:29:41.453Z,37.80
2023-05-20T08:32:12.605Z,37.90
2023-05-20T08:34:55.803Z,37.90
2023-05-20T08:37:27.080Z,37.90
2023-05-20T08:39:58.356Z,37.90
2023-05-20T08:42:29.836Z,37.90
2023-05-20T08:50:44.740Z,37.70
2023-05-20T08:53:16.598Z,37.70
2023-05-20T08:55:49.529Z,37.70
2023-05-20T08:58:22.262Z,37.60
2023-05-20T09:00:54.358Z,37.60
2023-05-20T09:03:28.648Z,37.60
2023-05-20T09:06:10.352Z,37.50
2023-05-20T09:08:41.499Z,37.60
2023-05-20T09:11:14.304Z,37.50
2023-05-20T09:13:45.457Z,37.60
2023-05-20T09:16:16.502Z,37.50
2023-05-20T09:18:48.701Z,37.50
2023-05-20T09:21:31.948Z,37.40
2023-05-20T09:24:15.721Z,37.40
2023-05-20T09:26:48.038Z,37.40
2023-05-20T09:32:18.698Z,37.30
2023-05-20T09:40:31.245Z,37.30
2023-05-20T09:43:14.191Z,37.20
2023-05-20T09:45:51.897Z,37.30
2023-05-20T09:51:17.031Z,37.30
2023-05-20T09:53:48.167Z,37.20
2023-05-20T09:59:12.253Z,37.20
2023-05-20T10:01:43.551Z,37.20
2023-05-20T10:04:17.265Z,37.20
2023-05-20T10:06:50.793Z,37.20
2023-05-20T10:09:39.522Z,37.20
2023-05-20T10:12:24.636Z,37.10
2023-05-20T10:15:13.497Z,37.10
2023-05-20T10:17:50.356Z,37.10
2023-05-20T10:20:21.824Z,37.10
2023-05-20T10:23:02.133Z,37.10
2023-05-20T10:25:33.383Z,37.00
2023-05-20T10:28:10.248Z,37.00
2023-05-20T10:30:44.428Z,37.00
2023-05-20T10:33:17.786Z,37.00
2023-05-20T10:35:56.220Z,36.90
2023-05-20T10:38:27.698Z,36.90
2023-05-20T10:41:00.176Z,36.90
2023-05-20T10:43:35.660Z,36.90
2023-05-20T10:49:08.260Z,36.80
2023-05-20T10:51:40.655Z,36.80
2023-05-20T10:54:13.348Z,36.80
2023-05-20T10:56:47.220Z,36.70
2023-05-20T10:59:18.603Z,36.70
2023-05-20T11:01:50.180Z,36.70
2023-05-20T11:07:15.624Z,36.60
2023-05-20T11:12:40.437Z,36.50
2023-05-20T11:15:21.692Z,36.50
2023-05-20T11:18:03.720Z,36.50
2023-05-20T11:20:36.809Z,36.40
2023-05-20T11:23:10.416Z,36.40
2023-05-20T11:25:41.524Z,36.40
2023-05-20T11:28:19.176Z,36.30
2023-05-20T11:30:52.413Z,36.30
2023-05-20T11:33:24.061Z,36.30
2023-05-20T11:35:59.151Z,36.20
2023-05-20T11:38:30.366Z,36.20
2023-05-20T11:41:01.424Z,36.20
2023-05-20T11:43:33.596Z,36.20
2023-05-20T11:46:04.528Z,36.10
2023-05-20T11:48:37.848Z,36.10
2023-05-20T11:51:12.523Z,36.00
2023-05-20T11:53:58.364Z,36.10
2023-05-20T11:56:28.578Z,36.00
2023-05-20T11:59:00.393Z,36.00
2023-05-20T12:01:35.140Z,36.00
2023-05-20T12:04:09.461Z,35.90
2023-05-20T12:06:40.980Z,35.90
2023-05-20T12:09:13.058Z,35.90
2023-05-20T12:11:48.816Z,35.90
2023-05-20T12:14:19.783Z,35.80
2023-05-20T12:16:51.126Z,35.80
2023-05-20T12:19:32.665Z,35.80
2023-05-20T12:25:00.643Z,35.70
2023-05-20T12:27:32.246Z,35.70
2023-05-20T12:30:04.925Z,35.70
2023-05-20T12:32:35.955Z,35.60
2023-05-20T12:35:07.307Z,35.60
2023-05-20T12:37:38.938Z,35.60
2023-05-20T12:43:02.157Z,35.50
2023-05-20T12:45:42.365Z,35.50
2023-05-20T12:51:16.561Z,35.40
2023-05-20T12:53:59.508Z,35.40
2023-05-20T12:56:33.372Z,35.40
2023-05-20T12:59:08.422Z,35.40
2023-05-20T13:01:39.976Z,35.40
2023-05-20T13:04:14.210Z,35.30
2023-05-20T13:06:50.751Z,35.30
2023-05-20T13:09:21.314Z,35.30
2023-05-20T13:11:52.508Z,35.20
2023-05-20T13:17:01.871Z,35.20
2023-05-20T13:19:37.988Z,35.20
2023-05-20T13:24:58.904Z,35.20
2023-05-20T13:27:30.132Z,35.10
2023-05-20T13:30:07.834Z,35.10
2023-05-20T13:32:38.283Z,35.10
2023-05-20T13:35:13.889Z,35.10
2023-05-20T13:37:44.958Z,35.10
2023-05-20T13:40:16.681Z,35.10
2023-05-20T13:42:47.688Z,35.00
2023-05-20T13:45:24.004Z,35.00
2023-05-20T13:47:55.242Z,35.00
2023-05-20T13:50:26.369Z,35.00
2023-05-20T13:56:13.958Z,35.00
2023-05-20T13:58:50.508Z,35.00
2023-05-20T14:01:24.212Z,35.00
2023-05-20T14:03:55.610Z,34.90
2023-05-20T14:09:17.731Z,34.90
2023-05-20T14:11:48.126Z,34.90
2023-05-20T14:14:33.393Z,34.90
2023-05-20T14:17:07.167Z,34.80
2023-05-20T14:19:39.763Z,34.80
2023-05-20T14:22:16.836Z,34.80
2023-05-20T14:25:21.802Z,34.80
2023-05-20T14:27:36.464Z,34.80
2023-05-20T14:30:08.996Z,34.80
2023-05-20T14:32:46.171Z,34.80
2023-05-20T14:35:18.011Z,34.70
2023-05-20T14:37:51.377Z,34.70
2023-05-20T14:40:21.545Z,34.70
2023-05-20T14:42:52.567Z,34.70
2023-05-20T14:45:26.773Z,34.60
2023-05-20T14:47:57.961Z,34.60
2023-05-20T14:50:29.965Z,34.50
2023-05-20T14:53:02.444Z,34.50
2023-05-20T14:55:36.219Z,34.50
2023-05-20T14:58:07.486Z,34.50
2023-05-20T15:00:38.543Z,34.50
2023-05-20T15:03:09.848Z,34.40
2023-05-20T15:05:43.866Z,34.40
2023-05-20T15:08:14.965Z,34.40
2023-05-20T15:10:47.434Z,34.40
2023-05-20T15:13:18.761Z,34.40
2023-05-20T15:15:49.899Z,34.40
2023-05-20T15:18:20.968Z,34.40
2023-05-20T15:20:54.811Z,34.40
2023-05-20T15:23:25.897Z,34.30
2023-05-20T15:25:59.136Z,34.30
2023-05-20T15:28:30.344Z,34.30
2023-05-20T15:31:04.442Z,34.30
2023-05-20T15:33:35.858Z,34.30
2023-05-20T15:36:09.808Z,34.30
2023-05-20T15:38:45.201Z,34.20
2023-05-20T15:41:17.356Z,34.20
2023-05-20T15:43:48.361Z,34.20
2023-05-20T15:46:19.891Z,34.20
2023-05-20T15:48:52.835Z,34.20
2023-05-20T15:51:27.038Z,34.20
2023-05-20T15:53:58.151Z,34.20
2023-05-20T15:56:40.794Z,34.10
2023-05-20T15:59:11.778Z,34.20
2023-05-20T16:01:42.848Z,34.10
2023-05-20T16:04:13.982Z,34.10
2023-05-20T16:06:45.079Z,34.00
2023-05-20T16:09:16.187Z,34.00
2023-05-20T16:11:48.562Z,34.00
2023-05-20T16:14:19.816Z,34.00
2023-05-20T16:16:51.070Z,34.00
2023-05-20T16:19:25.026Z,33.90
2023-05-20T16:21:56.236Z,33.90
2023-05-20T16:24:29.599Z,33.80
2023-05-20T16:27:03.512Z,33.80
2023-05-20T16:29:34.757Z,33.80
2023-05-20T16:32:05.935Z,33.80
2023-05-20T16:34:49.971Z,33.80
2023-05-20T16:37:21.344Z,33.80
2023-05-20T16:39:54.221Z,33.80
2023-05-20T16:42:27.703Z,33.70
2023-05-20T16:44:59.015Z,33.70
2023-05-20T16:47:30.055Z,33.70
2023-05-20T16:50:01.246Z,33.60
2023-05-20T16:52:32.206Z,33.60
2023-05-20T16:55:06.691Z,33.50
2023-05-20T16:57:38.906Z,33.50
2023-05-20T17:00:11.163Z,33.50
2023-05-20T17:02:42.265Z,33.50
2023-05-20T17:05:14.645Z,33.40
2023-05-20T17:07:46.390Z,33.40
2023-05-20T17:10:18.596Z,33.40
2023-05-20T17:12:49.911Z,33.30
2023-05-20T17:15:21.157Z,33.30
2023-05-20T17:17:52.733Z,33.30
2023-05-20T17:20:23.994Z,33.20
2023-05-20T17:22:58.428Z,33.20
2023-05-20T17:25:29.729Z,33.20
2023-05-20T17:28:00.731Z,33.20
2023-05-20T17:30:31.802Z,33.10
2023-05-20T17:33:03.322Z,33.10
2023-05-20T17:35:34.368Z,33.10
2023-05-20T17:38:05.658Z,33.00
2023-05-20T17:40:36.880Z,33.00
2023-05-20T17:43:08.449Z,32.90
2023-05-20T17:45:39.437Z,32.90
2023-05-20T17:48:11.853Z,32.90
2023-05-20T17:50:43.007Z,32.80
2023-05-20T17:53:14.562Z,32.80
2023-05-20T17:55:47.085Z,32.70
2023-05-20T17:58:18.281Z,32.70
2023-05-20T18:00:49.421Z,32.70
2023-05-20T18:03:20.763Z,32.70
2023-05-20T18:05:53.270Z,32.70
2023-05-20T18:08:24.593Z,32.60
2023-05-20T18:10:56.888Z,32.60
2023-05-20T18:13:30.815Z,32.60
2023-05-20T18:16:03.954Z,32.60
2023-05-20T18:18:35.426Z,32.70
2023-05-20T18:21:08.515Z,32.70
2023-05-20T18:23:39.650Z,32.70
2023-05-20T18:26:11.009Z,32.70
2023-05-20T18:28:42.609Z,32.70
2023-05-20T18:31:15.406Z,32.70
2023-05-20T18:33:46.178Z,32.70
2023-05-20T18:36:19.922Z,32.60
2023-05-20T18:38:51.059Z,32.60
2023-05-20T18:41:23.546Z,32.50
2023-05-20T18:43:54.404Z,32.50
2023-05-20T18:46:25.787Z,32.40
2023-05-20T18:48:59.325Z,32.30
2023-05-20T18:51:31.862Z,32.30
2023-05-20T18:54:02.943Z,32.30
2023-05-20T18:56:40.814Z,32.30
2023-05-20T18:59:11.846Z,32.30
2023-05-20T19:01:42.821Z,32.20
2023-05-20T19:04:14.136Z,32.20
2023-05-20T19:06:45.339Z,32.20
2023-05-20T19:09:16.249Z,32.20
2023-05-20T19:11:47.665Z,32.10
2023-05-20T19:14:20.353Z,32.10
2023-05-20T19:16:51.216Z,32.10
2023-05-20T19:19:22.531Z,32.10
2023-05-20T19:21:53.951Z,32.10
2023-05-20T19:24:25.121Z,32.10
2023-05-20T19:26:56.274Z,32.00
2023-05-20T19:29:27.502Z,32.00
2023-05-20T19:31:59.155Z,32.10
2023-05-20T19:34:30.220Z,32.10
2023-05-20T19:37:01.131Z,32.00
2023-05-20T19:39:32.381Z,32.00
2023-05-20T19:42:03.556Z,31.90
2023-05-20T19:44:34.698Z,31.90
2023-05-20T19:47:07.002Z,31.90
2023-05-20T19:49:38.114Z,31.80
2023-05-20T19:52:10.277Z,31.80
2023-05-20T19:54:43.293Z,31.70
2023-05-20T19:57:14.513Z,31.70
2023-05-20T19:59:45.517Z,31.70
2023-05-20T20:02:16.592Z,31.70
2023-05-20T20:04:48.352Z,31.60
2023-05-20T20:07:19.506Z,31.60
2023-05-20T20:09:51.964Z,31.60
2023-05-20T20:12:23.228Z,31.60
2023-05-20T20:14:54.675Z,31.60
2023-05-20T20:17:26.466Z,31.60
2023-05-20T20:19:57.880Z,31.60
2023-05-20T20:22:28.912Z,31.60
2023-05-20T20:24:59.869Z,31.50
2023-05-20T20:27:31.116Z,31.50
2023-05-20T20:30:03.728Z,31.50
2023-05-20T20:32:36.418Z,31.50
2023-05-20T20:35:07.716Z,31.50
2023-05-20T20:37:39.600Z,31.50
2023-05-20T20:40:12.783Z,31.50
2023-05-20T20:42:46.191Z,31.50
2023-05-20T20:45:17.729Z,31.50
2023-05-20T20:47:50.157Z,31.50
2023-05-20T20:50:21.155Z,31.40
2023-05-20T20:52:52.267Z,31.40
2023-05-20T20:55:24.780Z,31.50
2023-05-20T20:57:57.116Z,31.40
2023-05-20T21:00:29.183Z,31.40
2023-05-20T21:03:00.448Z,31.40
2023-05-20T21:05:31.487Z,31.40
2023-05-20T21:08:04.087Z,31.40
2023-05-20T21:10:36.773Z,31.30
2023-05-20T21:13:08.101Z,31.30
2023-05-20T21:15:39.176Z,31.30
2023-05-20T21:18:10.156Z,31.20
2023-05-20T21:20:41.459Z,31.30
2023-05-20T21:23:12.675Z,31.20
2023-05-20T21:25:43.903Z,31.20
2023-05-20T21:28:15.091Z,31.20
2023-05-20T21:30:46.214Z,31.20
2023-05-20T21:33:17.213Z,31.20
2023-05-20T21:35:48.360Z,31.20
2023-05-20T21:38:19.333Z,31.20
2023-05-20T21:40:50.346Z,31.10
2023-05-20T21:43:21.613Z,31.20
2023-05-20T21:45:52.881Z,31.20
2023-05-20T21:48:24.050Z,31.10
2023-05-20T21:50:55.234Z,31.10
2023-05-20T21:53:26.454Z,31.10
2023-05-20T21:55:57.529Z,31.10
2023-05-20T21:58:28.845Z,31.00
2023-05-20T22:01:00.125Z,31.00
2023-05-20T22:03:31.158Z,31.00
2023-05-20T22:06:02.408Z,31.00
2023-05-20T22:08:35.105Z,31.00
2023-05-20T22:11:07.900Z,31.00
2023-05-20T22:13:40.416Z,31.00
2023-05-20T22:16:12.414Z,31.00
2023-05-20T22:18:44.109Z,30.90
2023-05-20T22:21:15.226Z,31.00
2023-05-20T22:23:46.462Z,30.90
2023-05-20T22:26:18.899Z,30.90
2023-05-20T22:28:50.196Z,30.90
2023-05-20T22:31:21.227Z,30.80
2023-05-20T22:33:52.301Z,30.80
2023-05-20T22:36:24.700Z,30.80
2023-05-20T22:38:55.776Z,30.80
2023-05-20T22:41:27.624Z,30.80
2023-05-20T22:43:58.804Z,30.80
2023-05-20T22:46:29.862Z,30.70
2023-05-20T22:49:01.193Z,30.70
2023-05-20T22:51:33.667Z,30.70
2023-05-20T22:54:04.724Z,30.70
2023-05-20T22:56:35.997Z,30.70
2023-05-20T22:59:07.749Z,30.70
2023-05-20T23:01:39.236Z,30.70
2023-05-20T23:04:10.374Z,30.70
2023-05-20T23:06:41.337Z,30.70
2023-05-20T23:11:44.080Z,30.70
2023-05-20T23:14:15.592Z,30.70
2023-05-20T23:16:46.731Z,30.70
2023-05-20T23:19:18.199Z,30.70
2023-05-20T23:21:49.535Z,30.70
2023-05-20T23:24:20.600Z,30.70
2023-05-20T23:26:51.881Z,30.70
2023-05-20T23:29:23.792Z,30.70
2023-05-20T23:31:54.796Z,30.70
2023-05-20T23:34:25.738Z,30.70
2023-05-20T23:36:56.755Z,30.80
2023-05-20T23:39:27.828Z,30.80
2023-05-20T23:41:59.090Z,30.80
2023-05-20T23:44:30.172Z,30.90
2023-05-20T23:47:02.030Z,30.90
2023-05-20T23:49:33.546Z,30.90
2023-05-20T23:52:05.010Z,30.90
2023-05-20T23:54:36.582Z,30.90
2023-05-20T23:57:09.740Z,31.00
2023-05-20T23:59:41.404Z,31.00
